MOL Modern — V7VS6 — position and weather

sailwx.info

Track history (hours):
 
Tides and Currents Weather Stations Pressure Air Temp Water Temp Dewpoint Dewpoint Depression Visibility Wind Speed Wind Dir Waves Ship Positions

MOL Modern

Last reported at 2016-Aug-25 09:32 UTC. Time now 2016-Aug-27 18:41 UTC.
Position N 33°55' E 134°54'.

Length 302 m; draft 9.7 m.

Type: Ship (hazmat cat A). MMSI: 538004203.

Date/timePositionNaut miles runAvg speedWind from/ knotsBaromVisibWave heightAir tempDewpointWater temp
2016-Aug-25 09:32N 33°55' E 134°54'1717.3
2016-Aug-25 08:33N 34°12' E 134°57'1413.4
2016-Aug-25 07:32N 34°25' E 135°03'1717.5
2016-Aug-25 06:33N 34°38' E 135°16'2 1.0
2016-Aug-25 04:28N 34°39' E 135°15'0 0.0
2016-Aug-25 03:28N 34°39' E 135°15'0 0.0
2016-Aug-25 02:22N 34°39' E 135°15'0 0.0
2016-Aug-25 01:28N 34°39' E 135°15'0 0.0
2016-Aug-25 00:28N 34°39' E 135°15'0 0.0
2016-Aug-24 23:16N 34°39' E 135°15'0 0.0
2016-Aug-24 22:28N 34°39' E 135°15'5 5.5
2016-Aug-24 21:33N 34°34' E 135°16'1615.7
2016-Aug-24 20:33N 34°22' E 135°03'1413.7
2016-Aug-24 19:33N 34°09' E 135°00'7 7.1
2016-Aug-24 18:33N 34°02' E 134°59'23711.8
2016-Aug-23 22:33N 34°56' E 139°39'1615.9
2016-Aug-23 21:33N 35°10' E 139°46'1212.2
2016-Aug-23 20:33N 35°22' E 139°42'1312.9
2016-Aug-23 19:33N 35°34' E 139°49'3 3.1
2016-Aug-23 18:29N 35°36' E 139°46'0 0.0
2016-Aug-23 17:33N 35°36' E 139°46'0 0.0
2016-Aug-23 16:32N 35°36' E 139°46'0 0.0
2016-Aug-23 15:32N 35°36' E 139°46'0 0.0
2016-Aug-23 14:29N 35°36' E 139°46'0 0.0
2016-Aug-23 13:32N 35°36' E 139°46'0 0.0
2016-Aug-23 12:32N 35°36' E 139°46'0 0.0
2016-Aug-23 11:32N 35°36' E 139°46'0 0.0
2016-Aug-23 10:32N 35°36' E 139°46'0 0.0
2016-Aug-23 09:32N 35°36' E 139°46'0 0.0
2016-Aug-23 08:32N 35°36' E 139°46'0 0.0
2016-Aug-23 07:32N 35°36' E 139°46'0 0.0
2016-Aug-23 06:32N 35°36' E 139°46'0 0.0
2016-Aug-23 05:32N 35°36' E 139°46'0 0.0
2016-Aug-23 04:32N 35°36' E 139°46'8 8.0
2016-Aug-23 03:33N 35°30' E 139°52'1312.9
2016-Aug-23 02:34N 35°19' E 139°44'1111.1
2016-Aug-23 01:34N 35°08' E 139°47'8 7.6
2016-Aug-23 00:33N 35°01' E 139°44'1511.2
2016-Aug-22 23:14N 34°51' E 139°56'1318.9
2016-Aug-22 22:33N 34°51' E 140°12'  
Track history (hours):
 
Tides and Currents Weather Stations Pressure Air Temp Water Temp Dewpoint Dewpoint Depression Visibility Wind Speed Wind Dir Waves Ship Positions

MOL Modern

Last reported at 2016-Aug-25 09:32 UTC. Time now 2016-Aug-27 18:41 UTC.
Position N 33°55' E 134°54'.

Length 302 m; draft 9.7 m.

Type: Ship (hazmat cat A). MMSI: 538004203.

Date/timePositionNaut miles runAvg speedWind from/ knotsBaromVisibWave heightAir tempDewpointWater temp
2016-Aug-25 09:32N 33°55' E 134°54'1717.3
2016-Aug-25 08:33N 34°12' E 134°57'1413.4
2016-Aug-25 07:32N 34°25' E 135°03'1717.5
2016-Aug-25 06:33N 34°38' E 135°16'2 1.0
2016-Aug-25 04:28N 34°39' E 135°15'0 0.0
2016-Aug-25 03:28N 34°39' E 135°15'0 0.0
2016-Aug-25 02:22N 34°39' E 135°15'0 0.0
2016-Aug-25 01:28N 34°39' E 135°15'0 0.0
2016-Aug-25 00:28N 34°39' E 135°15'0 0.0
2016-Aug-24 23:16N 34°39' E 135°15'0 0.0
2016-Aug-24 22:28N 34°39' E 135°15'5 5.5
2016-Aug-24 21:33N 34°34' E 135°16'1615.7
2016-Aug-24 20:33N 34°22' E 135°03'1413.7
2016-Aug-24 19:33N 34°09' E 135°00'7 7.1
2016-Aug-24 18:33N 34°02' E 134°59'23711.8
2016-Aug-23 22:33N 34°56' E 139°39'1615.9
2016-Aug-23 21:33N 35°10' E 139°46'1212.2
2016-Aug-23 20:33N 35°22' E 139°42'1312.9
2016-Aug-23 19:33N 35°34' E 139°49'3 3.1
2016-Aug-23 18:29N 35°36' E 139°46'0 0.0
2016-Aug-23 17:33N 35°36' E 139°46'0 0.0
2016-Aug-23 16:32N 35°36' E 139°46'0 0.0
2016-Aug-23 15:32N 35°36' E 139°46'0 0.0
2016-Aug-23 14:29N 35°36' E 139°46'0 0.0
2016-Aug-23 13:32N 35°36' E 139°46'0 0.0
2016-Aug-23 12:32N 35°36' E 139°46'0 0.0
2016-Aug-23 11:32N 35°36' E 139°46'0 0.0
2016-Aug-23 10:32N 35°36' E 139°46'0 0.0
2016-Aug-23 09:32N 35°36' E 139°46'0 0.0
2016-Aug-23 08:32N 35°36' E 139°46'0 0.0
2016-Aug-23 07:32N 35°36' E 139°46'0 0.0
2016-Aug-23 06:32N 35°36' E 139°46'0 0.0
2016-Aug-23 05:32N 35°36' E 139°46'0 0.0
2016-Aug-23 04:32N 35°36' E 139°46'8 8.0
2016-Aug-23 03:33N 35°30' E 139°52'1312.9
2016-Aug-23 02:34N 35°19' E 139°44'1111.1
2016-Aug-23 01:34N 35°08' E 139°47'8 7.6
2016-Aug-23 00:33N 35°01' E 139°44'1511.2
2016-Aug-22 23:14N 34°51' E 139°56'1318.9
2016-Aug-22 22:33N 34°51' E 140°12'  

Dump ship's entire track history